• Join FlightAware (Why Join?)
  • Login
  • US Flag 
12:52PM EDT


 

Airport Tracker/Info


-or-


 

Live Flight TrackerFlight Track Log ✈ DAL3721 ✈ 08-Jul-2014 ✈ KCVG - KMCI

Flight Track Log - Related Links

Times and Time Zones

All times are in EDT time to prevent confusion due to time zone crossing. See the DAL3721 flight status page for this flight to view local times or setup timezone preferences in your user account.

Time Position Orientation Groundspeed Altitude Reporting Facility
EDT Latitude Longitude Course Direction KTS MPH feet Rate Location/Type
08:05PM 39.0500 -84.6833 158° South 143 165 1,600  Level Cincinnati TRACON
08:06PM 39.0500 -84.7667 270° West 217 250 3,000 1,860 Climbing Cincinnati TRACON
08:07PM 39.0500 -84.8500 270° West 259 298 5,700 2,760 Climbing Cincinnati TRACON
08:08PM 39.0472 -84.9419 268° West 259 298 8,400 2,400 Climbing Indianapolis Center
08:09PM 39.0717 -85.0281 290° West 257 296 10,500 1,500 Climbing Indianapolis Center
08:10PM 39.1022 -85.1258 292° West 288 331 11,500 1,200 Climbing Indianapolis Center
08:11PM 39.0249 -84.6552 158° South  Level FlightAware Approximate
08:11PM 39.1250 -85.2375 285° West 306 352 13,000  Level Indianapolis Center
08:12PM 39.1444 -85.3517 282° West 318 366 14,500 1,440 Climbing Indianapolis Center
08:13PM 39.1653 -85.4681 283° West 327 376 16,000 1,440 Climbing Indianapolis Center
08:14PM 39.1861 -85.5858 283° West 333 383 17,500 1,500 Climbing Indianapolis Center
08:15PM 39.2069 -85.7014 283° West 333 383 19,100 1,500 Climbing Indianapolis Center
08:16PM 39.2314 -85.8381 283° West 332 382 20,600 1,260 Climbing Indianapolis Center
08:17PM 39.2514 -85.9531 283° West 331 381 21,700 1,020 Climbing Indianapolis Center
08:18PM 39.2714 -86.0689 283° West 331 381 22,700 960 Climbing Indianapolis Center
08:19PM 39.2911 -86.1853 282° West 331 381 23,700 780 Climbing Indianapolis Center
08:20PM 39.3119 -86.3031 283° West 331 381 24,400 540 Climbing Indianapolis Center
08:21PM 39.3322 -86.4236 282° West 337 388 24,900 480 Climbing Indianapolis Center
08:22PM 39.3539 -86.5475 283° West 347 399 25,400 480 Climbing Indianapolis Center
08:23PM 39.3753 -86.6728 282° West 350 403 25,900 480 Climbing Indianapolis Center
08:24PM 39.3969 -86.7983 283° West 352 405 26,400 480 Climbing Indianapolis Center
08:25PM 39.4172 -86.9250 282° West 356 410 26,900 480 Climbing Indianapolis Center
08:26PM 39.4386 -87.0508 282° West 357 411 27,400 480 Climbing Indianapolis Center
08:27PM 39.4636 -87.2028 282° West 358 412 28,000 240 Climbing Indianapolis Center
08:28PM 39.4844 -87.3303 282° West 359 413 28,000  Level Indianapolis Center
08:29PM 39.5053 -87.4617 282° West 367 422 28,000  Level Indianapolis Center
08:31PM 39.5264 -87.5914 282° West 369 425 28,000  Level Indianapolis Center
08:32PM 39.5469 -87.7222 282° West 369 425 28,000  Level Indianapolis Center
08:33PM 39.5678 -87.8519 282° West 370 426 28,000  Level Indianapolis Center
08:34PM 39.5892 -87.9825 282° West 369 425 28,000  Level Indianapolis Center
08:35PM 39.6011 -88.1147 277° West 369 425 28,000  Level Indianapolis Center
08:36PM 39.6036 -88.2469 271° West 369 425 28,000  Level Indianapolis Center
08:37PM 39.6089 -88.4022 273° West 369 425 28,000  Level Indianapolis Center
08:38PM 39.6125 -88.5378 272° West 369 425 28,000  Level Indianapolis Center
08:39PM 39.6150 -88.6678 271° West 369 425 28,000  Level Kansas City Center
08:40PM 39.6183 -88.7989 272° West 369 425 28,000  Level Kansas City Center
08:41PM 39.6219 -88.9317 272° West 369 425 28,000  Level Kansas City Center
08:42PM 39.6258 -89.0914 272° West 369 425 28,000  Level Kansas City Center
08:43PM 39.6272 -89.2269 271° West 370 426 28,000  Level Kansas City Center
08:44PM 39.6297 -89.3431 272° West 370 426 28,000  Level Kansas City Center
08:45PM 39.6331 -89.5006 272° West 369 425 28,000  Level Kansas City Center
08:46PM 39.6350 -89.6300 271° West 365 420 28,000  Level Kansas City Center
08:47PM 39.6372 -89.7600 271° West 365 420 28,000  Level Kansas City Center
08:48PM 39.6394 -89.8922 271° West 365 420 28,000  Level Kansas City Center
08:49PM 39.6419 -90.0264 271° West 368 423 28,000  Level Kansas City Center
08:50PM 39.6431 -90.1592 271° West 369 425 28,000  Level Kansas City Center
08:51PM 39.6447 -90.2925 271° West 369 425 28,000  Level Kansas City Center
08:52PM 39.6472 -90.4497 271° West 369 425 28,000  Level Kansas City Center
08:53PM 39.6492 -90.5797 271° West 368 423 28,000  Level Kansas City Center
08:54PM 39.6500 -90.7114 271° West 368 423 28,000  Level Kansas City Center
08:55PM 39.6506 -90.8450 270° West 368 423 28,000  Level Kansas City Center
08:56PM 39.6514 -90.9761 271° West 368 423 28,000  Level Kansas City Center
08:57PM 39.6517 -91.1056 270° West 366 421 28,000  Level Kansas City Center
08:58PM 39.6528 -91.2386 271° West 367 422 28,000  Level Kansas City Center
08:59PM 39.6533 -91.3936 270° West 367 422 28,000  Level Kansas City Center
09:00PM 39.6525 -91.5244 270° West 367 422 28,000  Level Kansas City Center
09:01PM 39.6525 -91.6564 270° West 367 422 28,000  Level Kansas City Center
09:02PM 39.6519 -91.7897 270° West 368 423 28,000  Level Kansas City Center
09:03PM 39.6522 -91.9236 270° West 368 423 28,000  Level Kansas City Center
09:04PM 39.6517 -92.0833 270° West 369 425 28,000  Level Kansas City Center
09:05PM 39.6519 -92.2153 270° West 369 425 28,000  Level Kansas City Center
09:06PM 39.6503 -92.3508 269° West 370 426 28,000 -720 Level Kansas City Center
09:08PM 39.6489 -92.4842 269° West 371 427 26,600 -1,440 Descending Kansas City Center
09:09PM 39.6489 -92.6175 270° West 371 427 25,100 -1,500 Descending Kansas City Center
09:10PM 39.6475 -92.7472 269° West 369 425 23,600 -1,500 Descending Kansas City Center
09:11PM 39.6461 -92.8728 269° West 357 411 22,100 -1,500 Descending Kansas City Center
09:12PM 39.6444 -93.0003 269° West 356 410 20,600 -1,620 Descending Kansas City Center
09:13PM 39.6425 -93.1525 269° West 356 410 18,800 -1,500 Descending Kansas City Center
09:14PM 39.6403 -93.2797 269° West 355 409 17,500 -1,200 Descending Kansas City Center
09:15PM 39.6369 -93.4042 268° West 354 407 16,500 -1,020 Descending Kansas City Center
09:16PM 39.6361 -93.5294 270° West 354 407 15,500 -1,020 Descending Kansas City Center
09:17PM 39.6358 -93.6506 270° West 343 395 14,500 -1,140 Descending Kansas City Center
09:18PM 39.6317 -93.7883 268° West 337 388 13,300 -1,080 Descending Kansas City Center
09:19PM 39.6161 -93.9061 260° West 337 388 12,300 -660 Descending Kansas City Center
09:20PM 39.5625 -94.0083 236° Southwest 341 392 12,000 -120 Descending Kansas City Center
09:21PM 39.5108 -94.1131 237° Southwest 343 395 12,100  Climbing Kansas City Center
09:22PM 39.4592 -94.2161 237° Southwest 343 395 12,000 -660 Descending Kansas City Center
09:23PM 39.4078 -94.3167 237° Southwest 337 388 10,800 -1,200 Descending Kansas City Center
09:24PM 39.3636 -94.4019 236° Southwest 285 328 9,600 -1,320 Descending Kansas City Center
09:25PM 39.3219 -94.4847 237° Southwest 277 319 8,100 -1,440 Descending Kansas City Center
09:26PM 39.2689 -94.5536 225° Southwest 280 322 6,600 -1,380 Descending Kansas City Center
09:27PM 39.1908 -94.6169 212° Southwest 278 320 5,400 -1,380 Descending Kansas City Center
09:28PM 39.1467 -94.6856 230° Southwest 263 303 3,900 -1,260 Descending Kansas City Center
09:29PM 39.1889 -94.7358 317° Northwest 231 266 2,900 -960 Descending Kansas City Center
09:30PM 39.2386 -94.7222 12° North 184 212 2,000 -840 Descending Kansas City Center
09:31PM 39.2725 -94.7122 13° North 131 151 1,300 -720 Descending Kansas City Center